Time;durP1;ratioP1;P1;durP2;ratioP2;P2;SDS_P1;SDS_P2;PMS_P1;PMS_P2;Temp;Humidity;BMP_temperature;BMP_pressure;BME280_temperature;BME280_humidity;BME280_pressure;Samples;Min_cycle;Max_cycle;Signal;HPM_P1;HPM_P2
2022/08/30 00:04:01;;;;;;;3.38;1.55;;;20.80;79.20;;;;;;6249201;28;20034;-76
2022/08/30 00:07:03;;;;;;;4.32;2.28;;;20.80;79.80;;;;;;6249305;28;20048;-79
2022/08/30 00:10:06;;;;;;;6.78;2.00;;;20.70;80.20;;;;;;6249072;28;20056;-79
2022/08/30 00:13:10;;;;;;;4.18;1.77;;;20.60;80.60;;;;;;6249721;28;20059;-77
2022/08/30 00:16:13;;;;;;;4.13;2.15;;;20.60;81.00;;;;;;6248805;28;20041;-76
2022/08/30 00:19:14;;;;;;;5.22;1.95;;;20.60;81.10;;;;;;6248425;28;20666;-77
2022/08/30 00:22:16;;;;;;;5.35;2.25;;;20.60;81.60;;;;;;6248859;28;20045;-77
2022/08/30 00:25:19;;;;;;;4.45;1.98;;;20.50;80.90;;;;;;6250429;28;20054;-77
2022/08/30 00:28:22;;;;;;;3.50;1.90;;;20.60;80.00;;;;;;6248499;28;20053;-77
2022/08/30 00:31:24;;;;;;;2.88;1.58;;;20.60;79.60;;;;;;6248502;28;20046;-77
2022/08/30 00:34:26;;;;;;;3.72;1.65;;;20.70;79.20;;;;;;6248696;28;20049;-77
2022/08/30 00:37:28;;;;;;;7.40;1.63;;;20.80;79.30;;;;;;6248187;28;20049;-77
2022/08/30 00:40:30;;;;;;;6.18;1.58;;;20.80;78.70;;;;;;6248453;28;20045;-79
2022/08/30 00:43:34;;;;;;;2.15;1.30;;;20.80;78.10;;;;;;6248313;28;20056;-79
2022/08/30 00:46:36;;;;;;;6.28;1.50;;;20.80;76.20;;;;;;6248254;28;20041;-79
2022/08/30 00:49:40;;;;;;;4.65;1.15;;;20.90;75.80;;;;;;6248295;28;20057;-76
2022/08/30 00:52:46;;;;;;;3.40;1.58;;;20.90;74.30;;;;;;6248312;28;20049;-78
2022/08/30 00:55:49;;;;;;;3.47;1.45;;;21.00;74.50;;;;;;6246682;28;20049;-76
2022/08/30 00:58:56;;;;;;;2.53;1.65;;;21.00;74.50;;;;;;6247851;28;20140;-78
2022/08/30 01:01:59;;;;;;;3.72;1.55;;;20.90;75.60;;;;;;6248710;28;20053;-80
2022/08/30 01:05:02;;;;;;;4.25;2.08;;;21.00;75.70;;;;;;6247707;28;20041;-77
2022/08/30 01:08:04;;;;;;;12.55;1.98;;;21.00;75.40;;;;;;6247489;28;20053;-77
2022/08/30 01:11:07;;;;;;;2.63;1.77;;;21.10;75.30;;;;;;6247943;28;20042;-77
2022/08/30 01:14:12;;;;;;;5.05;1.50;;;21.10;74.70;;;;;;6247594;28;20045;-79
2022/08/30 01:17:14;;;;;;;6.70;1.77;;;21.20;73.80;;;;;;6248167;28;20056;-78
2022/08/30 01:20:24;;;;;;;2.60;1.60;;;21.20;73.20;;;;;;6247292;28;20057;-78
2022/08/30 01:23:29;;;;;;;2.88;0.93;;;21.20;72.20;;;;;;6247526;28;20052;-78
2022/08/30 01:26:32;;;;;;;2.97;1.60;;;21.20;72.10;;;;;;6247728;28;20052;-76
2022/08/30 01:29:34;;;;;;;5.28;2.03;;;21.10;72.20;;;;;;6247637;28;20053;-78
2022/08/30 01:32:40;;;;;;;3.08;1.10;;;21.00;72.20;;;;;;6247099;28;20541;-77
2022/08/30 01:35:47;;;;;;;2.97;1.35;;;20.90;72.30;;;;;;6247030;28;20053;-76
2022/08/30 01:38:52;;;;;;;3.67;1.60;;;20.80;72.70;;;;;;6246727;28;20049;-76
2022/08/30 01:41:54;;;;;;;7.90;1.40;;;20.80;73.20;;;;;;6247119;28;20045;-79
2022/08/30 01:44:56;;;;;;;3.08;1.27;;;20.70;73.40;;;;;;6246823;28;20045;-78
2022/08/30 01:47:57;;;;;;;7.45;1.25;;;20.70;73.50;;;;;;6246674;28;20052;-77
2022/08/30 01:50:59;;;;;;;6.45;2.50;;;20.60;73.80;;;;;;6245938;28;20045;-77
2022/08/30 01:54:03;;;;;;;5.63;1.08;;;20.50;73.80;;;;;;6247328;28;20050;-77
2022/08/30 01:57:06;;;;;;;3.25;1.70;;;20.50;73.50;;;;;;6247191;28;20045;-78
2022/08/30 02:00:09;;;;;;;4.75;1.55;;;20.50;73.20;;;;;;6246550;28;20075;-77
2022/08/30 02:03:11;;;;;;;2.28;1.30;;;20.60;74.00;;;;;;6246361;28;20423;-79
2022/08/30 02:06:16;;;;;;;5.68;1.60;;;20.60;73.80;;;;;;6247017;28;20049;-76
2022/08/30 02:09:19;;;;;;;5.32;1.40;;;20.60;73.20;;;;;;6246305;28;20072;-78
2022/08/30 02:12:21;;;;;;;3.90;1.38;;;20.60;73.40;;;;;;6246194;28;20056;-80
2022/08/30 02:15:23;;;;;;;4.53;1.20;;;20.50;73.30;;;;;;6246240;28;20059;-78
2022/08/30 02:18:26;;;;;;;3.90;1.75;;;20.50;73.50;;;;;;6246149;28;20046;-76
2022/08/30 02:21:27;;;;;;;2.13;1.35;;;20.40;73.70;;;;;;6247101;28;20045;-80
2022/08/30 02:24:30;;;;;;;2.88;1.48;;;20.40;74.00;;;;;;6246034;28;20414;-76
2022/08/30 02:27:32;;;;;;;7.90;1.52;;;20.40;73.90;;;;;;6245677;28;20065;-79
2022/08/30 02:30:34;;;;;;;4.85;1.13;;;20.30;74.00;;;;;;6246347;28;20045;-79
2022/08/30 02:33:36;;;;;;;2.50;1.10;;;20.30;74.00;;;;;;6246824;28;20049;-76
2022/08/30 02:36:39;;;;;;;19.13;3.70;;;20.30;74.30;;;;;;6245856;28;20747;-77
2022/08/30 02:39:42;;;;;;;4.18;1.27;;;20.30;74.60;;;;;;6245545;28;20442;-76
2022/08/30 02:42:44;;;;;;;3.28;1.17;;;20.30;74.50;;;;;;6246139;28;20049;-76
2022/08/30 02:45:46;;;;;;;2.72;1.20;;;20.30;74.60;;;;;;6246597;28;20060;-77
2022/08/30 02:48:47;;;;;;;10.05;1.38;;;20.20;74.80;;;;;;6247155;28;20093;-80
2022/08/30 02:51:50;;;;;;;4.70;1.60;;;20.20;75.20;;;;;;6249587;28;20051;-80
2022/08/30 02:54:53;;;;;;;7.50;1.63;;;20.10;75.50;;;;;;6250345;28;20042;-80
2022/08/30 02:57:55;;;;;;;4.20;1.38;;;20.10;75.80;;;;;;6250391;28;20568;-78
2022/08/30 03:00:57;;;;;;;5.70;1.30;;;20.10;76.40;;;;;;6250723;28;20041;-80
2022/08/30 03:03:58;;;;;;;3.85;1.58;;;20.10;75.70;;;;;;6255585;28;20046;-80
2022/08/30 03:07:01;;;;;;;6.07;1.33;;;20.10;76.00;;;;;;6255713;28;20045;-81
2022/08/30 03:10:04;;;;;;;5.72;1.55;;;20.10;76.00;;;;;;6254826;28;20050;-81
2022/08/30 03:13:06;;;;;;;2.13;1.33;;;20.10;75.90;;;;;;6256296;28;20073;-79
2022/08/30 03:16:08;;;;;;;5.82;1.48;;;20.10;76.10;;;;;;6255615;28;20041;-79
2022/08/30 03:19:10;;;;;;;3.75;1.20;;;20.10;75.90;;;;;;6255269;28;20045;-80
2022/08/30 03:22:11;;;;;;;4.22;1.27;;;20.10;76.00;;;;;;6255944;28;20060;-81
2022/08/30 03:25:16;;;;;;;4.90;1.52;;;20.00;76.30;;;;;;6255542;28;20052;-81
2022/08/30 03:28:17;;;;;;;1.48;1.02;;;19.90;77.00;;;;;;6254440;28;20061;-81
2022/08/30 03:31:19;;;;;;;4.00;1.33;;;19.70;77.30;;;;;;6255155;28;20053;-80
2022/08/30 03:34:22;;;;;;;2.97;1.20;;;19.60;77.80;;;;;;6254728;28;20061;-79
2022/08/30 03:37:25;;;;;;;3.50;1.48;;;19.60;78.00;;;;;;6254757;28;20060;-80
2022/08/30 03:40:28;;;;;;;3.92;1.20;;;19.50;78.30;;;;;;6254528;28;20052;-80
2022/08/30 03:43:32;;;;;;;5.70;1.55;;;19.50;78.80;;;;;;6256338;28;20422;-78
2022/08/30 03:46:33;;;;;;;14.68;2.92;;;19.40;79.10;;;;;;6254231;28;20041;-80
2022/08/30 03:49:35;;;;;;;8.55;2.15;;;19.40;79.30;;;;;;6254803;28;20046;-81
2022/08/30 03:52:37;;;;;;;11.85;2.55;;;19.50;79.40;;;;;;6255095;28;20064;-80
2022/08/30 03:55:40;;;;;;;6.25;2.30;;;19.50;79.50;;;;;;6255161;28;20045;-81
2022/08/30 03:58:42;;;;;;;10.30;1.98;;;19.60;79.60;;;;;;6254351;28;20056;-78
2022/08/30 04:01:44;;;;;;;2.72;1.50;;;19.50;79.70;;;;;;6256917;28;20522;-81
2022/08/30 04:04:46;;;;;;;6.10;1.88;;;19.40;79.80;;;;;;6255769;28;20041;-79
2022/08/30 04:07:48;;;;;;;5.10;1.90;;;19.40;80.00;;;;;;6256305;28;20059;-81
2022/08/30 04:10:52;;;;;;;4.22;1.50;;;19.40;80.10;;;;;;6258676;28;20140;-81
2022/08/30 04:13:55;;;;;;;5.32;1.58;;;19.40;80.80;;;;;;6258476;28;20057;-80
2022/08/30 04:16:57;;;;;;;8.45;1.65;;;19.40;80.50;;;;;;6258337;28;20041;-80
2022/08/30 04:19:59;;;;;;;4.07;1.33;;;19.30;80.90;;;;;;6256122;28;20050;-80
2022/08/30 04:23:01;;;;;;;4.30;1.65;;;19.30;80.90;;;;;;6256228;28;20047;-79
2022/08/30 04:26:05;;;;;;;3.65;1.58;;;19.20;81.20;;;;;;6257769;28;20049;-78
2022/08/30 04:29:06;;;;;;;6.60;1.70;;;19.20;81.40;;;;;;6259177;28;20052;-81
2022/08/30 04:32:08;;;;;;;1.98;1.38;;;19.10;81.90;;;;;;6256269;28;20049;-80
2022/08/30 04:35:11;;;;;;;6.13;2.10;;;19.10;82.10;;;;;;6255648;28;20392;-80
2022/08/30 04:38:13;;;;;;;4.97;1.85;;;19.10;82.60;;;;;;6199717;28;20060;-78
2022/08/30 04:41:19;;;;;;;3.05;1.55;;;19.00;82.80;;;;;;6229206;28;20049;-80
2022/08/30 04:44:21;;;;;;;4.38;1.30;;;19.00;83.40;;;;;;6253378;28;20519;-79
2022/08/30 04:47:23;;;;;;;4.32;1.90;;;19.00;83.70;;;;;;6252380;28;20055;-79
2022/08/30 04:50:25;;;;;;;5.43;2.15;;;18.90;84.10;;;;;;6252158;28;20053;-79
2022/08/30 04:53:27;;;;;;;6.88;1.83;;;18.90;84.50;;;;;;6252716;28;20056;-78
2022/08/30 04:56:30;;;;;;;5.95;1.42;;;18.90;84.90;;;;;;6252538;28;20056;-80
2022/08/30 04:59:32;;;;;;;4.43;1.27;;;18.80;85.30;;;;;;6253168;28;20057;-80
2022/08/30 05:02:34;;;;;;;6.57;1.80;;;18.80;85.70;;;;;;6257502;28;20053;-78
2022/08/30 05:05:39;;;;;;;3.08;1.40;;;18.80;86.10;;;;;;6254903;28;20431;-80
2022/08/30 05:08:41;;;;;;;5.50;1.70;;;18.80;86.20;;;;;;6256231;28;20045;-78
2022/08/30 05:11:45;;;;;;;10.65;2.40;;;18.90;86.30;;;;;;6254947;28;20045;-79
2022/08/30 05:14:46;;;;;;;4.10;1.58;;;18.90;86.40;;;;;;6252781;28;20480;-80
2022/08/30 05:17:48;;;;;;;5.22;1.92;;;19.00;86.60;;;;;;6252726;28;20052;-81
2022/08/30 05:20:50;;;;;;;3.90;1.80;;;19.10;86.80;;;;;;6248707;28;20048;-79
2022/08/30 05:23:54;;;;;;;7.03;2.50;;;19.30;86.50;;;;;;6253770;28;20060;-78
2022/08/30 05:26:57;;;;;;;3.75;1.67;;;19.50;86.00;;;;;;6251157;28;20042;-79
2022/08/30 05:29:59;;;;;;;3.92;1.63;;;19.70;85.30;;;;;;6252795;28;20053;-80
2022/08/30 05:33:01;;;;;;;5.63;1.73;;;20.00;84.50;;;;;;6250999;28;20045;-80
2022/08/30 05:36:06;;;;;;;4.28;1.75;;;20.30;83.30;;;;;;6251652;28;20130;-79
2022/08/30 05:39:09;;;;;;;4.05;1.40;;;20.70;82.20;;;;;;6250073;28;20056;-78
2022/08/30 05:42:12;;;;;;;6.82;1.80;;;21.00;81.10;;;;;;6251464;28;20061;-80
2022/08/30 05:45:15;;;;;;;6.70;2.05;;;21.20;79.60;;;;;;6250623;28;20045;-80
2022/08/30 05:48:17;;;;;;;3.90;1.55;;;21.30;78.50;;;;;;6252326;28;20045;-81
2022/08/30 05:51:22;;;;;;;5.70;2.20;;;21.50;78.20;;;;;;6251829;28;20534;-79
2022/08/30 05:54:23;;;;;;;2.67;1.80;;;21.70;77.80;;;;;;6252213;28;20131;-81
2022/08/30 05:57:27;;;;;;;4.35;2.08;;;22.00;76.60;;;;;;6250422;28;20523;-80
2022/08/30 06:00:29;;;;;;;8.65;2.17;;;22.60;75.50;;;;;;6250762;28;20052;-80
2022/08/30 06:03:32;;;;;;;3.92;1.50;;;23.10;73.10;;;;;;6251350;28;20045;-80
2022/08/30 06:06:36;;;;;;;4.05;1.30;;;23.40;71.70;;;;;;6251521;28;20052;-81
2022/08/30 06:09:37;;;;;;;4.68;1.98;;;23.70;71.00;;;;;;6250562;28;20045;-81
2022/08/30 06:12:40;;;;;;;5.55;2.00;;;23.80;69.60;;;;;;6251246;28;20052;-80
2022/08/30 06:15:43;;;;;;;6.43;1.60;;;23.90;69.40;;;;;;6251926;28;20048;-81
2022/08/30 06:18:46;;;;;;;3.70;1.65;;;23.90;68.70;;;;;;6251424;28;20049;-79
2022/08/30 06:21:49;;;;;;;6.00;1.70;;;24.10;68.30;;;;;;6251526;28;20414;-80
2022/08/30 06:24:51;;;;;;;9.27;2.08;;;24.30;67.80;;;;;;6252313;28;20041;-80
2022/08/30 06:27:54;;;;;;;5.32;1.92;;;24.30;67.40;;;;;;6251874;28;20053;-81
2022/08/30 06:30:55;;;;;;;5.95;1.95;;;24.30;66.80;;;;;;6251090;28;20116;-78
2022/08/30 06:33:57;;;;;;;4.35;1.80;;;24.20;67.00;;;;;;6252324;28;20049;-81
2022/08/30 06:36:59;;;;;;;4.18;2.05;;;24.10;67.10;;;;;;6254299;28;20049;-80
2022/08/30 06:40:02;;;;;;;7.70;1.83;;;24.00;67.40;;;;;;6256171;28;20048;-80
2022/08/30 06:43:05;;;;;;;8.27;1.88;;;23.80;67.70;;;;;;6256966;28;20053;-80
2022/08/30 06:46:10;;;;;;;4.03;1.90;;;23.80;68.00;;;;;;6256038;28;20523;-78
2022/08/30 06:49:11;;;;;;;4.47;1.95;;;24.10;67.80;;;;;;6256432;28;20542;-79
2022/08/30 06:52:13;;;;;;;8.82;2.25;;;24.70;67.00;;;;;;6257247;28;20060;-82
2022/08/30 06:55:17;;;;;;;7.80;2.25;;;25.50;64.90;;;;;;6255551;28;20545;-79
2022/08/30 06:58:20;;;;;;;10.25;3.13;;;26.60;62.30;;;;;;6256242;28;20049;-79
2022/08/30 07:01:24;;;;;;;8.07;2.03;;;27.60;59.40;;;;;;6256672;28;20057;-81
2022/08/30 07:04:26;;;;;;;4.93;1.45;;;28.70;56.70;;;;;;6253325;28;20046;-78
2022/08/30 07:07:28;;;;;;;10.63;2.38;;;29.50;54.30;;;;;;6250625;28;20072;-79
2022/08/30 07:10:30;;;;;;;6.13;2.50;;;29.80;52.70;;;;;;6250924;28;20075;-79
2022/08/30 07:13:33;;;;;;;2.90;2.25;;;29.80;52.50;;;;;;6251079;28;20061;-79
2022/08/30 07:16:36;;;;;;;5.75;2.00;;;29.80;52.30;;;;;;6251568;28;20072;-81
2022/08/30 07:19:36;;;;;;;6.30;2.28;;;29.50;52.60;;;;;;6250190;28;20049;-79
2022/08/30 07:22:38;;;;;;;4.75;2.08;;;28.90;53.00;;;;;;6250802;28;20411;-79
2022/08/30 07:25:41;;;;;;;4.80;1.75;;;28.60;54.90;;;;;;6250400;28;20049;-78
2022/08/30 07:28:45;;;;;;;5.88;2.30;;;28.40;54.70;;;;;;6250044;28;20050;-78
2022/08/30 07:31:47;;;;;;;6.53;2.20;;;28.10;55.20;;;;;;6255754;28;20053;-78
2022/08/30 07:34:49;;;;;;;7.22;2.13;;;28.20;55.40;;;;;;6255991;28;20204;-78
2022/08/30 07:37:50;;;;;;;4.97;1.95;;;28.10;55.60;;;;;;6251268;28;20068;-78
2022/08/30 07:40:52;;;;;;;3.97;1.85;;;27.90;55.80;;;;;;6251562;28;20057;-78
2022/08/30 07:43:56;;;;;;;3.70;2.03;;;28.00;56.00;;;;;;6251707;28;20053;-78
2022/08/30 07:46:57;;;;;;;3.67;2.03;;;28.10;55.50;;;;;;6251349;28;20045;-78
2022/08/30 07:50:00;;;;;;;5.07;1.88;;;27.90;55.90;;;;;;6251766;28;20061;-78
2022/08/30 07:53:01;;;;;;;5.85;2.00;;;27.90;56.10;;;;;;6251566;28;20103;-78
2022/08/30 07:56:03;;;;;;;8.35;2.00;;;28.40;55.90;;;;;;6251669;28;20045;-78
2022/08/30 07:59:06;;;;;;;4.30;1.70;;;29.00;54.70;;;;;;6251372;28;20053;-79
2022/08/30 08:02:08;;;;;;;3.50;1.75;;;29.50;53.80;;;;;;6252223;28;20060;-78
2022/08/30 08:05:10;;;;;;;4.65;1.95;;;29.90;53.20;;;;;;6251411;28;20042;-78
2022/08/30 08:08:12;;;;;;;3.15;1.90;;;30.50;52.10;;;;;;6250789;28;20045;-79
2022/08/30 08:11:16;;;;;;;2.72;1.50;;;30.70;51.50;;;;;;6251647;28;20046;-78
2022/08/30 08:14:22;;;;;;;5.68;1.63;;;30.90;51.50;;;;;;6252239;28;20419;-79
2022/08/30 08:17:24;;;;;;;6.15;1.95;;;31.10;50.90;;;;;;6251573;28;20045;-79
2022/08/30 08:20:26;;;;;;;6.15;2.05;;;31.10;50.90;;;;;;6251723;28;20049;-78
2022/08/30 08:23:28;;;;;;;8.88;3.15;;;31.00;51.30;;;;;;6251405;28;20052;-79
2022/08/30 08:26:29;;;;;;;7.32;1.85;;;30.80;51.80;;;;;;6251552;28;20076;-78
2022/08/30 08:29:32;;;;;;;5.07;2.00;;;30.60;52.10;;;;;;6250818;28;20045;-79
2022/08/30 08:32:34;;;;;;;9.90;2.03;;;30.20;52.50;;;;;;6251150;28;20046;-78
2022/08/30 08:35:36;;;;;;;3.20;1.75;;;29.90;52.40;;;;;;6251032;28;20056;-78
2022/08/30 08:38:38;;;;;;;6.00;1.80;;;29.90;53.00;;;;;;6251265;28;20053;-79
2022/08/30 08:41:50;;;;;;;5.93;2.42;;;29.70;53.00;;;;;;6252458;28;20049;-80
2022/08/30 08:44:59;;;;;;;3.90;1.83;;;29.40;53.40;;;;;;6251825;28;20053;-80
2022/08/30 08:48:10;;;;;;;4.80;2.03;;;29.10;53.80;;;;;;6251283;28;20049;-80
2022/08/30 08:54:39;;;;;;;6.40;2.97;;;28.80;54.40;;;;;;6248744;28;20499;-77
2022/08/30 08:57:41;;;;;;;4.88;1.67;;;28.70;54.50;;;;;;6247638;28;20503;-77
2022/08/30 09:00:44;;;;;;;4.88;1.60;;;28.70;54.90;;;;;;6248085;28;20056;-79
2022/08/30 09:03:47;;;;;;;4.35;1.60;;;28.70;55.00;;;;;;6248116;28;20056;-77
2022/08/30 09:06:53;;;;;;;5.57;2.10;;;28.80;55.00;;;;;;6248814;28;20052;-76
2022/08/30 09:09:59;;;;;;;4.72;1.80;;;28.80;54.80;;;;;;6248366;28;20057;-78
2022/08/30 09:13:01;;;;;;;5.25;2.17;;;29.00;54.90;;;;;;6244975;28;20053;-80
2022/08/30 09:16:05;;;;;;;4.78;1.95;;;29.20;54.30;;;;;;6245141;28;20052;-78
2022/08/30 09:19:06;;;;;;;6.35;1.55;;;29.40;53.90;;;;;;6236460;28;20410;-78
2022/08/30 09:22:21;;;;;;;5.60;2.28;;;29.40;54.40;;;;;;6245749;28;20048;-77
2022/08/30 09:25:26;;;;;;;10.30;2.30;;;29.60;53.60;;;;;;6248360;28;20045;-77
2022/08/30 09:28:30;;;;;;;6.28;1.95;;;29.70;53.70;;;;;;6247104;28;20083;-80
2022/08/30 09:31:47;;;;;;;6.75;2.00;;;29.90;52.90;;;;;;6246493;28;20056;-80
2022/08/30 09:34:49;;;;;;;4.97;1.83;;;30.20;52.80;;;;;;6247265;28;20049;-80
2022/08/30 09:37:56;;;;;;;3.60;2.13;;;30.30;52.30;;;;;;6245993;28;20052;-78
2022/08/30 09:41:01;;;;;;;2.50;1.90;;;30.30;52.20;;;;;;6245676;28;20560;-77
2022/08/30 09:44:10;;;;;;;3.35;1.92;;;30.60;51.80;;;;;;6251304;28;20128;-80
2022/08/30 09:47:21;;;;;;;6.28;2.15;;;31.10;50.70;;;;;;6248171;28;20518;-77
2022/08/30 09:50:25;;;;;;;4.03;1.85;;;31.40;50.10;;;;;;6246093;28;20552;-79
2022/08/30 09:53:34;;;;;;;2.63;1.63;;;31.60;49.60;;;;;;6245683;28;20053;-78
2022/08/30 09:56:43;;;;;;;3.30;1.70;;;31.80;49.40;;;;;;6233303;28;20420;-79
2022/08/30 09:59:52;;;;;;;5.25;2.63;;;32.20;49.30;;;;;;6220909;28;20054;-77
2022/08/30 10:03:04;;;;;;;7.68;1.83;;;32.20;47.90;;;;;;6221081;28;20212;-78
2022/08/30 10:06:13;;;;;;;2.85;1.92;;;32.00;48.30;;;;;;6221753;28;20056;-79
2022/08/30 10:09:25;;;;;;;4.93;2.22;;;32.00;48.50;;;;;;6221116;28;20061;-78
2022/08/30 10:12:32;;;;;;;8.05;1.95;;;31.90;48.80;;;;;;6220892;28;20050;-77
2022/08/30 10:15:40;;;;;;;2.60;1.52;;;32.00;48.80;;;;;;6221791;28;20056;-78
2022/08/30 10:18:52;;;;;;;7.47;2.38;;;32.20;48.30;;;;;;6220828;28;20517;-80
2022/08/30 10:21:59;;;;;;;3.30;2.25;;;32.30;47.50;;;;;;6242023;28;20046;-79
2022/08/30 10:25:06;;;;;;;3.10;2.20;;;32.50;47.40;;;;;;6246134;28;20054;-78
2022/08/30 10:28:14;;;;;;;1.77;1.67;;;32.40;47.20;;;;;;6244867;28;20147;-80
2022/08/30 10:31:24;;;;;;;4.80;2.17;;;32.20;47.10;;;;;;6246056;28;20072;-79
2022/08/30 10:34:32;;;;;;;4.22;1.80;;;32.10;47.80;;;;;;6245925;28;20061;-78
2022/08/30 10:37:39;;;;;;;2.42;1.50;;;32.30;46.90;;;;;;6246359;28;20522;-78
2022/08/30 10:44:12;;;;;;;2.20;1.63;;;32.10;47.40;;;;;;6246013;28;20061;-79
2022/08/30 10:47:24;;;;;;;4.38;2.17;;;32.10;46.50;;;;;;6245264;28;20053;-79
2022/08/30 10:50:30;;;;;;;6.93;1.73;;;32.10;46.60;;;;;;6245092;28;20074;-78
2022/08/30 10:53:36;;;;;;;4.13;1.75;;;32.40;46.20;;;;;;6244581;28;20052;-78
2022/08/30 10:56:42;;;;;;;5.38;2.00;;;32.50;45.90;;;;;;6244952;28;20053;-78
2022/08/30 10:59:48;;;;;;;4.72;1.73;;;32.60;45.10;;;;;;6244808;28;20059;-79
2022/08/30 11:03:21;;;;;;;4.43;1.90;;;32.60;45.00;;;;;;6245455;28;20049;-79
2022/08/30 11:06:30;;;;;;;2.80;2.05;;;32.50;44.40;;;;;;6245550;28;20055;-78
2022/08/30 11:09:49;;;;;;;5.25;2.17;;;32.60;44.40;;;;;;6247827;28;20057;-80
2022/08/30 11:12:59;;;;;;;4.03;1.70;;;32.70;44.70;;;;;;6249804;28;20050;-80
2022/08/30 11:16:04;;;;;;;5.50;2.50;;;32.60;44.90;;;;;;6249210;28;20522;-81
2022/08/30 11:19:16;;;;;;;2.88;1.90;;;32.50;44.90;;;;;;6241067;28;20057;-81
2022/08/30 11:22:24;;;;;;;6.07;2.17;;;32.40;45.40;;;;;;6250869;28;20060;-82
2022/08/30 11:25:48;;;;;;;3.67;2.05;;;32.70;44.90;;;;;;6253637;28;20045;-81
2022/08/30 11:29:05;;;;;;;5.90;2.10;;;32.80;44.20;;;;;;6252701;28;20056;-79
2022/08/30 11:32:23;;;;;;;3.80;1.73;;;32.70;44.70;;;;;;6253438;28;20049;-80
2022/08/30 11:35:42;;;;;;;6.00;2.17;;;32.70;44.50;;;;;;6220906;28;20053;-79
2022/08/30 11:39:06;;;;;;;4.85;2.03;;;32.80;44.10;;;;;;6252904;28;20084;-78
2022/08/30 11:42:13;;;;;;;2.30;1.80;;;32.80;44.20;;;;;;6250978;28;20057;-78
2022/08/30 11:45:44;;;;;;;6.25;1.90;;;32.80;44.10;;;;;;6249464;28;20056;-78
2022/08/30 11:48:50;;;;;;;2.22;1.90;;;32.90;44.10;;;;;;6248704;28;20049;-78
2022/08/30 11:52:06;;;;;;;2.23;1.23;;;32.70;44.50;;;;;;6248274;28;20057;-79
2022/08/30 11:55:36;;;;;;;7.22;2.30;;;32.40;44.10;;;;;;6249065;28;20060;-77
2022/08/30 11:58:47;;;;;;;3.90;2.00;;;32.20;44.60;;;;;;6248462;28;20050;-77
2022/08/30 12:01:50;;;;;;;5.53;2.45;;;32.10;44.60;;;;;;6247925;28;20529;-78
2022/08/30 12:04:55;;;;;;;2.00;1.40;;;32.20;44.40;;;;;;6248290;28;20049;-78
2022/08/30 12:07:59;;;;;;;6.75;1.73;;;32.40;44.40;;;;;;6248248;28;20057;-78
2022/08/30 12:11:05;;;;;;;2.58;1.80;;;32.80;43.70;;;;;;6247731;28;20049;-77
2022/08/30 12:14:07;;;;;;;3.40;1.55;;;32.90;43.50;;;;;;6248395;28;20050;-78
2022/08/30 12:20:42;;;;;;;2.92;2.15;;;33.70;42.30;;;;;;6242118;28;20065;-79
2022/08/30 12:23:51;;;;;;;6.95;1.77;;;33.90;41.80;;;;;;6246614;28;20042;-78
2022/08/30 12:26:57;;;;;;;2.95;2.10;;;33.90;41.70;;;;;;6247741;28;20055;-78
2022/08/30 12:30:01;;;;;;;6.22;1.65;;;34.00;41.40;;;;;;6248836;28;20087;-78
2022/08/30 12:33:02;;;;;;;5.35;1.50;;;33.90;41.40;;;;;;6248947;28;20049;-77
2022/08/30 12:36:04;;;;;;;6.72;1.83;;;33.80;41.70;;;;;;6247611;28;20400;-77
2022/08/30 12:39:12;;;;;;;2.00;1.60;;;33.90;41.60;;;;;;6247236;28;20128;-77
2022/08/30 12:42:21;;;;;;;2.38;1.63;;;34.10;41.50;;;;;;6247567;28;20046;-78
2022/08/30 12:45:25;;;;;;;4.07;1.70;;;34.10;41.00;;;;;;6247329;28;20041;-77
2022/08/30 12:48:28;;;;;;;5.45;1.70;;;34.10;42.40;;;;;;6246908;28;20050;-78
2022/08/30 12:51:38;;;;;;;5.53;1.85;;;34.10;41.00;;;;;;6246526;28;20427;-78
2022/08/30 12:54:40;;;;;;;2.10;1.50;;;34.20;41.10;;;;;;6246870;28;20057;-78
2022/08/30 12:57:54;;;;;;;3.53;1.52;;;34.60;40.50;;;;;;6246584;28;20057;-78
2022/08/30 13:01:13;;;;;;;5.60;1.63;;;34.60;40.30;;;;;;6246680;28;20068;-78
2022/08/30 13:04:22;;;;;;;3.05;1.30;;;34.50;40.20;;;;;;6246037;28;20049;-77
2022/08/30 13:07:29;;;;;;;5.10;1.55;;;34.20;40.60;;;;;;6246121;28;20060;-77
2022/08/30 13:10:30;;;;;;;3.67;1.58;;;34.00;40.60;;;;;;6247176;28;20049;-78
2022/08/30 13:13:37;;;;;;;2.47;1.90;;;33.90;41.00;;;;;;6246371;28;20506;-78
2022/08/30 13:16:39;;;;;;;5.25;1.25;;;34.10;40.80;;;;;;6246052;28;20056;-78
2022/08/30 13:19:42;;;;;;;2.60;1.40;;;34.00;41.00;;;;;;6246209;28;20056;-77
2022/08/30 13:23:02;;;;;;;2.65;1.73;;;34.00;41.30;;;;;;6238817;28;20050;-78
2022/08/30 13:26:06;;;;;;;7.13;1.80;;;34.20;41.30;;;;;;6247157;28;20046;-77
2022/08/30 13:29:16;;;;;;;4.63;2.05;;;34.60;40.20;;;;;;6250093;28;20081;-77
2022/08/30 13:32:17;;;;;;;3.08;1.70;;;34.50;40.10;;;;;;6247485;28;20092;-78
2022/08/30 13:35:19;;;;;;;4.53;2.25;;;34.60;40.60;;;;;;6246393;28;20053;-78
2022/08/30 13:38:21;;;;;;;3.80;1.77;;;35.00;39.90;;;;;;6245714;28;20056;-78
2022/08/30 13:41:24;;;;;;;2.70;2.00;;;35.00;39.80;;;;;;6245823;28;20050;-78
2022/08/30 13:44:27;;;;;;;4.30;1.60;;;35.10;40.00;;;;;;6245346;28;20053;-79
2022/08/30 13:47:30;;;;;;;4.05;1.70;;;35.30;39.60;;;;;;6246248;28;20059;-79
2022/08/30 13:50:31;;;;;;;2.63;1.42;;;35.00;39.50;;;;;;6246184;28;20060;-78
2022/08/30 13:53:33;;;;;;;9.93;2.05;;;34.70;40.20;;;;;;6245390;28;20049;-78
2022/08/30 13:56:35;;;;;;;2.03;1.50;;;34.50;40.20;;;;;;6245301;28;20045;-78
2022/08/30 13:59:38;;;;;;;3.15;1.58;;;34.40;40.80;;;;;;6245511;28;20045;-78
2022/08/30 14:02:41;;;;;;;2.60;2.00;;;34.60;39.90;;;;;;6247066;28;20049;-79
2022/08/30 14:05:44;;;;;;;2.67;1.42;;;34.30;40.20;;;;;;6247882;28;20530;-80
2022/08/30 14:08:46;;;;;;;3.20;1.60;;;34.40;40.20;;;;;;6246502;28;20049;-78
2022/08/30 14:11:47;;;;;;;4.13;1.67;;;34.60;40.30;;;;;;6246082;28;20062;-78
2022/08/30 14:14:50;;;;;;;4.57;1.45;;;34.80;40.00;;;;;;6248517;28;20061;-79
2022/08/30 14:17:52;;;;;;;3.50;1.88;;;34.80;40.00;;;;;;6250307;28;20050;-80
2022/08/30 14:20:54;;;;;;;5.38;2.00;;;35.20;39.90;;;;;;6250300;28;20053;-80
2022/08/30 14:23:57;;;;;;;6.15;1.90;;;35.20;39.20;;;;;;6239345;28;20049;-80
2022/08/30 14:26:59;;;;;;;1.83;1.45;;;35.00;39.20;;;;;;6249911;28;20061;-81
2022/08/30 14:30:02;;;;;;;2.63;1.40;;;34.90;39.50;;;;;;6250202;28;20057;-80
2022/08/30 14:33:04;;;;;;;4.30;1.75;;;34.60;39.60;;;;;;6248985;28;20046;-80
2022/08/30 14:36:07;;;;;;;6.78;2.20;;;34.80;39.90;;;;;;6249682;28;20049;-80
2022/08/30 14:39:13;;;;;;;2.72;1.65;;;35.00;39.60;;;;;;6247155;28;20046;-80
2022/08/30 14:42:15;;;;;;;14.23;1.80;;;35.30;39.50;;;;;;6246655;28;20080;-80
2022/08/30 14:45:18;;;;;;;4.22;1.67;;;35.40;39.40;;;;;;6248740;28;20050;-80
2022/08/30 14:48:20;;;;;;;3.17;1.80;;;35.60;39.00;;;;;;6248562;28;20048;-80
2022/08/30 14:51:23;;;;;;;4.75;2.28;;;35.10;39.00;;;;;;6248662;28;20050;-80
2022/08/30 14:54:27;;;;;;;3.55;1.77;;;34.70;39.80;;;;;;6250321;28;20483;-80
2022/08/30 14:57:28;;;;;;;4.68;1.42;;;34.20;39.80;;;;;;6251105;28;20048;-82
2022/08/30 15:00:31;;;;;;;1.80;1.42;;;34.10;40.20;;;;;;6254066;28;20053;-81
2022/08/30 15:03:33;;;;;;;3.83;2.13;;;34.00;40.10;;;;;;6253966;28;20131;-80
2022/08/30 15:06:36;;;;;;;4.00;2.28;;;33.80;40.30;;;;;;6253940;28;20920;-80
2022/08/30 15:09:37;;;;;;;8.23;1.80;;;33.80;41.50;;;;;;6252290;28;20049;-78
2022/08/30 15:12:40;;;;;;;2.35;1.58;;;33.80;40.60;;;;;;6250283;28;20037;-79
2022/08/30 15:15:43;;;;;;;6.68;2.03;;;33.60;40.50;;;;;;6250674;28;20131;-79
2022/08/30 15:18:45;;;;;;;5.05;1.48;;;33.50;40.50;;;;;;6250099;28;20053;-78
2022/08/30 15:21:48;;;;;;;5.32;1.70;;;33.20;41.70;;;;;;6251393;28;20046;-80
2022/08/30 15:24:50;;;;;;;5.00;1.88;;;33.10;41.00;;;;;;6240817;28;20052;-79
2022/08/30 15:27:51;;;;;;;3.88;1.98;;;32.90;41.40;;;;;;6229196;28;20136;-80
2022/08/30 15:30:54;;;;;;;3.05;1.83;;;33.00;41.30;;;;;;6237214;28;20049;-79
2022/08/30 15:33:57;;;;;;;6.53;1.75;;;33.00;41.20;;;;;;6250364;28;20056;-79
2022/08/30 15:36:58;;;;;;;4.43;1.95;;;33.00;41.50;;;;;;6252330;28;20051;-80
2022/08/30 15:40:00;;;;;;;2.30;1.55;;;33.00;41.40;;;;;;6251683;28;20132;-80
2022/08/30 15:43:02;;;;;;;9.05;2.00;;;33.10;41.20;;;;;;6252755;28;20050;-80
2022/08/30 15:46:15;;;;;;;7.05;1.58;;;33.10;40.90;;;;;;6230455;28;20116;-80
2022/08/30 15:49:20;;;;;;;5.35;1.55;;;33.00;41.20;;;;;;6228050;28;20081;-80
2022/08/30 15:52:22;;;;;;;4.45;1.83;;;32.90;40.90;;;;;;6229352;28;20053;-80
2022/08/30 15:55:24;;;;;;;6.47;1.70;;;32.80;41.60;;;;;;6240088;28;20152;-80
2022/08/30 15:58:26;;;;;;;2.58;1.73;;;32.60;41.20;;;;;;6250299;28;20064;-79
2022/08/30 16:01:29;;;;;;;3.05;1.45;;;32.30;41.60;;;;;;6251373;28;20056;-79
2022/08/30 16:04:30;;;;;;;6.90;2.63;;;32.00;42.10;;;;;;6251161;28;20099;-79
2022/08/30 16:07:32;;;;;;;3.72;1.50;;;32.00;42.30;;;;;;6250817;28;20415;-79
2022/08/30 16:10:34;;;;;;;6.63;1.85;;;31.90;42.20;;;;;;6251749;28;20538;-79